LiveATC.Net - Listen to live air traffic control over the Internet!


ICAO: KOLM  IATA: OLM   Airport: Olympia Regional Airport
City: Olympia   State/Province: Washington
Country: United States   Continent: North America
KOLM METAR Weather: KOLM 231854Z 17005KT 10SM SCT025 18/10 A3010 RMK AO2 SLP193 T01780100
KOLM Flight Activity (FlightAware)
KOLM Airport Info   (AirNav) (iFlightPlanner)
KOLM VFR Sectional Chart   (iFlightPlanner) 
KOLM IFR Low Chart   (iFlightPlanner) 
KOLM Tower
Feed Status: DOWN
Last heard on: 2017-08-22 07:41:02 (32 days 12 hours 9 minutes ago)
KOLM Tower Audio Archives
FacilityFrequency
Olympia Tower/CTAF (0800-2000 PDT)124.400
Seattle Center Approach (2000-0800 PDT)128.300


NOTICE

Unauthorized use prohibited. See LiveATC.net Terms of Service


Find LiveATC Audio Streams


Airport/ARTCC Code

Frequency Search
(e.g., 124.400, 128.75)
Site-wide search
 


Browse LiveATC Feeds
LiveATC Coverage Map
Top 50 LiveATC Feeds
Bad Weather Areas

LiveATC FAQ
Offer a LiveATC Feed
Contact LiveATC.net
Press Inquiries

LiveATC on iPhone
LiveATC on Android

Windows Phone
Windows 8/10

LiveATC Mobile
(Mobile browser)

ATC Audio Archives
Interesting Recordings

LiveATC Forums


Home Page
About LiveATC.net
Make a Donation
LiveATC Store

Terms of Use
Privacy Policy

Canadian Air Freqs

AIRMETs/SIGMETs

FAA Airport Status
Nat'l Airspace Status
Arrival Demand Charts


Server Software By:
Icecast.org
Liquidsoap